Time;durP1;ratioP1;P1;durP2;ratioP2;P2;SDS_P1;SDS_P2;PMS_P1;PMS_P2;Temp;Humidity;BMP_temperature;BMP_pressure;BME280_temperature;BME280_humidity;BME280_pressure;Samples;Min_cycle;Max_cycle;Signal;HPM_P1;HPM_P2
2022/03/22 00:01:59;;;;;;;;;;;;;;;6.03;100.00;103143.44;4996343;28;20418;-70
2022/03/22 00:04:25;;;;;;;;;;;;;;;6.01;100.00;103137.25;4995415;28;19918;-69
2022/03/22 00:06:50;;;;;;;;;;;;;;;5.99;100.00;103138.97;4997064;28;19918;-70
2022/03/22 00:09:15;;;;;;;;;;;;;;;5.99;100.00;103152.16;4995333;28;19918;-70
2022/03/22 00:11:40;;;;;;;;;;;;;;;5.94;100.00;103148.56;4995329;28;19925;-70
2022/03/22 00:14:09;;;;;;;;;;;;;;;5.87;100.00;103145.84;4996801;28;19918;-70
2022/03/22 00:16:35;;;;;;;;;;;;;;;5.84;100.00;103146.72;4996393;28;19925;-70
2022/03/22 00:19:00;;;;;;;;;;;;;;;5.79;100.00;103129.91;4996331;28;19918;-70
2022/03/22 00:21:26;;;;;;;;;;;;;;;5.78;100.00;103141.28;4994630;28;19960;-70
2022/03/22 00:23:52;;;;;;;;;;;;;;;5.77;100.00;103133.38;4996653;28;20020;-70
2022/03/22 00:26:17;;;;;;;;;;;;;;;5.76;100.00;103136.88;4996321;28;20083;-70
2022/03/22 00:28:42;;;;;;;;;;;;;;;5.74;100.00;103135.97;4996261;28;20335;-70
2022/03/22 00:31:08;;;;;;;;;;;;;;;5.69;100.00;103138.53;4996405;28;19924;-70
2022/03/22 00:33:33;;;;;;;;;;;;;;;5.68;100.00;103149.06;4994882;28;19969;-70
2022/03/22 00:35:59;;;;;;;;;;;;;;;5.65;100.00;103149.94;4994827;28;19922;-70
2022/03/22 00:38:26;;;;;;;;;;;;;;;5.62;100.00;103149.88;4994845;28;19922;-70
2022/03/22 00:40:52;;;;;;;;;;;;;;;5.62;100.00;103151.63;4994801;28;19924;-70
2022/03/22 00:43:17;;;;;;;;;;;;;;;5.55;100.00;103163.81;4995940;28;20371;-70
2022/03/22 00:45:43;;;;;;;;;;;;;;;5.50;100.00;103160.22;4994587;28;19925;-70
2022/03/22 00:48:12;;;;;;;;;;;;;;;5.50;100.00;103154.09;4995884;28;20383;-70
2022/03/22 00:50:38;;;;;;;;;;;;;;;5.49;100.00;103158.47;4994355;28;19976;-70
2022/03/22 00:53:04;;;;;;;;;;;;;;;5.46;100.00;103162.78;4995886;28;19981;-70
2022/03/22 00:55:30;;;;;;;;;;;;;;;5.45;100.00;103161.03;4994496;28;20008;-70
2022/03/22 00:57:55;;;;;;;;;;;;;;;5.41;100.00;103154.81;4995735;28;20405;-70
2022/03/22 01:00:24;;;;;;;;;;;;;;;5.36;100.00;103161.78;4995733;28;20391;-70
2022/03/22 01:02:50;;;;;;;;;;;;;;;5.40;100.00;103162.72;4995864;28;20064;-70
2022/03/22 01:05:18;;;;;;;;;;;;;;;5.38;100.00;103162.69;4994531;28;19973;-70
2022/03/22 01:07:45;;;;;;;;;;;;;;;5.37;100.00;103160.94;4994717;28;19917;-70
2022/03/22 01:10:11;;;;;;;;;;;;;;;5.36;100.00;103159.13;4996620;28;20011;-70
2022/03/22 01:12:37;;;;;;;;;;;;;;;5.33;100.00;103159.09;4994878;28;19918;-70
2022/03/22 01:15:04;;;;;;;;;;;;;;;5.30;100.00;103153.78;4994309;28;19917;-70
2022/03/22 01:17:31;;;;;;;;;;;;;;;5.29;100.00;103146.75;4994202;28;20385;-70
2022/03/22 01:19:56;;;;;;;;;;;;;;;5.32;100.00;103138.88;4994058;28;19918;-70
2022/03/22 01:22:21;;;;;;;;;;;;;;;5.30;100.00;103145.88;4994051;28;19924;-70
2022/03/22 01:24:47;;;;;;;;;;;;;;;5.32;100.00;103138.88;4995176;28;19969;-70
2022/03/22 01:27:12;;;;;;;;;;;;;;;5.30;100.00;103150.25;4995134;28;20354;-70
2022/03/22 01:29:37;;;;;;;;;;;;;;;5.29;100.00;103144.13;4993860;28;20443;-70
2022/03/22 01:32:04;;;;;;;;;;;;;;;5.29;100.00;103145.84;4994099;28;19917;-69
2022/03/22 01:34:29;;;;;;;;;;;;;;;5.34;100.00;103157.34;4994617;28;19926;-70
2022/03/22 01:36:54;;;;;;;;;;;;;;;5.37;100.00;103145.13;4993639;28;20379;-70
2022/03/22 01:39:20;;;;;;;;;;;;;;;5.41;100.00;103146.03;4994945;28;19917;-70
2022/03/22 01:41:45;;;;;;;;;;;;;;;5.40;100.00;103147.78;4993624;28;19925;-70
2022/03/22 01:44:10;;;;;;;;;;;;;;;5.41;100.00;103140.75;4993588;28;20044;-70
2022/03/22 01:46:37;;;;;;;;;;;;;;;5.39;100.00;103140.72;4994784;28;19918;-70
2022/03/22 01:49:02;;;;;;;;;;;;;;;5.36;100.00;103140.69;4993562;28;19945;-69
2022/03/22 01:51:31;;;;;;;;;;;;;;;5.33;100.00;103134.47;4984993;28;20430;-69
2022/03/22 01:53:57;;;;;;;;;;;;;;;5.36;100.00;103139.78;4993408;28;19988;-70
2022/03/22 01:56:22;;;;;;;;;;;;;;;5.31;100.00;103133.59;4994507;28;20371;-70
2022/03/22 01:58:47;;;;;;;;;;;;;;;5.26;100.00;103130.91;4994571;28;19924;-70
2022/03/22 02:07:00;;;;;;;;;;;;;;;5.18;100.00;103123.72;4995250;28;20065;-69
2022/03/22 02:09:26;;;;;;;;;;;;;;;5.15;100.00;103118.41;4994561;28;19918;-69
2022/03/22 02:11:51;;;;;;;;;;;;;;;5.13;100.00;103121.03;4993227;28;19941;-70
2022/03/22 02:14:16;;;;;;;;;;;;;;;5.13;100.00;103117.50;4993162;28;20291;-70
2022/03/22 02:16:42;;;;;;;;;;;;;;;5.06;100.00;103119.13;4994401;28;20065;-70
2022/03/22 02:19:09;;;;;;;;;;;;;;;5.02;100.00;103117.34;4994316;28;19980;-70
2022/03/22 02:21:35;;;;;;;;;;;;;;;5.01;100.00;103115.53;4992943;28;19929;-70
2022/03/22 02:24:00;;;;;;;;;;;;;;;5.00;100.00;103124.31;4994253;28;19924;-70
2022/03/22 02:26:26;;;;;;;;;;;;;;;4.99;100.00;103122.56;4994329;28;20013;-70
2022/03/22 02:28:54;;;;;;;;;;;;;;;4.98;100.00;103120.75;4992942;28;19918;-70
2022/03/22 02:31:23;;;;;;;;;;;;;;;4.96;100.00;103117.25;4993053;28;20389;-70
2022/03/22 02:33:48;;;;;;;;;;;;;;;4.97;100.00;103115.47;4993170;28;20302;-70
2022/03/22 02:36:14;;;;;;;;;;;;;;;4.94;100.00;103118.06;4994383;28;19918;-70
2022/03/22 02:38:39;;;;;;;;;;;;;;;4.90;100.00;103121.50;4994307;28;20391;-70
2022/03/22 02:41:05;;;;;;;;;;;;;;;4.85;100.00;103121.44;4992875;28;19918;-70
2022/03/22 02:43:31;;;;;;;;;;;;;;;4.84;100.00;103116.16;4993030;28;19988;-70
2022/03/22 02:45:56;;;;;;;;;;;;;;;4.83;100.00;103110.00;4997042;28;19918;-69
2022/03/22 02:48:21;;;;;;;;;;;;;;;4.82;100.00;103118.75;4996826;28;20348;-70
2022/03/22 02:50:47;;;;;;;;;;;;;;;4.82;100.00;103123.13;4996454;28;19928;-70
2022/03/22 02:53:12;;;;;;;;;;;;;;;4.80;100.00;103119.56;4996748;28;19960;-70
2022/03/22 02:55:37;;;;;;;;;;;;;;;4.82;100.00;103125.75;4996753;28;19918;-70
2022/03/22 02:58:03;;;;;;;;;;;;;;;4.85;100.00;103125.81;4997790;28;19928;-71
2022/03/22 03:00:28;;;;;;;;;;;;;;;4.85;100.00;103126.69;4978850;28;19922;-70
2022/03/22 03:02:54;;;;;;;;;;;;;;;4.87;100.00;103127.59;4979532;28;19924;-70
2022/03/22 03:05:20;;;;;;;;;;;;;;;4.89;100.00;103124.97;4982342;28;20347;-70
2022/03/22 03:07:46;;;;;;;;;;;;;;;4.84;100.00;103117.00;4983479;28;20283;-70
2022/03/22 03:10:11;;;;;;;;;;;;;;;4.80;100.00;103123.09;4981026;28;19918;-70
2022/03/22 03:12:37;;;;;;;;;;;;;;;4.73;100.00;103126.47;4977030;28;19941;-70
2022/03/22 03:15:03;;;;;;;;;;;;;;;4.78;100.00;103124.81;4976785;28;19918;-70
2022/03/22 03:17:29;;;;;;;;;;;;;;;4.85;100.00;103129.34;4986870;28;21640;-70
2022/03/22 03:19:55;;;;;;;;;;;;;;;4.89;100.00;103125.88;4989294;28;19918;-69
2022/03/22 03:22:20;;;;;;;;;;;;;;;4.93;100.00;103127.72;4992679;28;19918;-69
2022/03/22 03:24:45;;;;;;;;;;;;;;;4.95;100.00;103125.97;4982802;28;19926;-69
2022/03/22 03:27:10;;;;;;;;;;;;;;;5.02;100.00;103124.34;4984714;28;20009;-69
2022/03/22 03:29:35;;;;;;;;;;;;;;;5.03;100.00;103127.00;4993016;28;19918;-69
2022/03/22 03:32:01;;;;;;;;;;;;;;;5.04;100.00;103126.16;4985232;28;19918;-69
2022/03/22 03:34:26;;;;;;;;;;;;;;;5.09;100.00;103129.72;4997858;28;19929;-69
2022/03/22 03:37:10;;;;;;;;;;;;;;;5.12;100.00;103131.53;4977917;28;19941;-69
2022/03/22 03:39:38;;;;;;;;;;;;;;;5.19;100.00;103129.00;4985408;28;19918;-69
2022/03/22 03:48:27;;;;;;;;;;;;;;;5.44;100.00;103127.63;4929310;29;20010;-69
2022/03/22 03:50:53;;;;;;;;;;;;;;;5.63;100.00;103135.81;4970288;28;20032;-70
2022/03/22 03:53:18;;;;;;;;;;;;;;;5.67;100.00;103132.34;4987563;28;19930;-69
2022/03/22 03:55:43;;;;;;;;;;;;;;;5.71;100.00;103133.28;4983964;28;19965;-69
2022/03/22 03:58:10;;;;;;;;;;;;;;;5.73;100.00;103136.84;4988616;28;20395;-69
2022/03/22 04:00:35;;;;;;;;;;;;;;;5.71;100.00;103128.91;4988831;28;20399;-70
2022/03/22 04:03:00;;;;;;;;;;;;;;;5.69;100.00;103137.66;4996285;28;19922;-70
2022/03/22 04:05:26;;;;;;;;;;;;;;;5.67;100.00;103139.41;4989159;28;19921;-70
2022/03/22 04:07:51;;;;;;;;;;;;;;;5.65;100.00;103133.22;4981138;28;20025;-70
2022/03/22 04:10:16;;;;;;;;;;;;;;;5.62;100.00;103125.25;4992455;28;19918;-70
2022/03/22 04:12:42;;;;;;;;;;;;;;;5.58;100.00;103124.31;4978360;28;19972;-70
2022/03/22 04:15:08;;;;;;;;;;;;;;;5.56;100.00;103123.41;4986253;28;19922;-70
2022/03/22 04:17:34;;;;;;;;;;;;;;;5.52;100.00;103129.53;4982766;28;19918;-70
2022/03/22 04:19:59;;;;;;;;;;;;;;;5.46;100.00;103126.81;5000518;28;19998;-70
2022/03/22 04:22:24;;;;;;;;;;;;;;;5.41;100.00;103131.09;4983286;28;19922;-70
2022/03/22 04:24:50;;;;;;;;;;;;;;;5.38;100.00;103127.53;4982738;28;19926;-69
2022/03/22 04:32:43;;;;;;;;;;;;;;;5.28;100.00;103131.78;4986060;28;20422;-70
2022/03/22 04:35:17;;;;;;;;;;;;;;;5.24;100.00;103139.63;4986825;28;19922;-70
2022/03/22 04:37:43;;;;;;;;;;;;;;;5.27;100.00;103148.47;4999192;28;19924;-70
2022/03/22 04:40:12;;;;;;;;;;;;;;;5.36;100.00;103140.69;4997137;28;20012;-70
2022/03/22 04:42:37;;;;;;;;;;;;;;;5.32;100.00;103138.88;4988352;28;19976;-70
2022/03/22 04:45:03;;;;;;;;;;;;;;;5.32;100.00;103138.00;4997655;28;19918;-70
2022/03/22 04:47:29;;;;;;;;;;;;;;;5.32;100.00;103141.53;4984615;28;19929;-70
2022/03/22 04:49:54;;;;;;;;;;;;;;;5.32;100.00;103146.78;5000174;28;20415;-70
2022/03/22 04:57:47;;;;;;;;;;;;;;;5.37;100.00;103152.13;4996747;28;20028;-71
2022/03/22 05:00:13;;;;;;;;;;;;;;;5.35;100.00;103149.47;4994528;28;20398;-72
2022/03/22 05:02:38;;;;;;;;;;;;;;;5.35;100.00;103151.22;4994428;28;20279;-72
2022/03/22 05:05:03;;;;;;;;;;;;;;;5.36;100.00;103156.50;4994380;28;20271;-71
2022/03/22 05:07:28;;;;;;;;;;;;;;;5.33;100.00;103153.81;4993889;28;19931;-70
2022/03/22 05:09:54;;;;;;;;;;;;;;;5.31;100.00;103158.16;4994434;28;19917;-72
2022/03/22 05:12:19;;;;;;;;;;;;;;;5.25;100.00;103165.09;4995419;28;19925;-73
2022/03/22 05:14:50;;;;;;;;;;;;;;;5.28;100.00;103165.16;4994958;28;19925;-71
2022/03/22 05:17:21;;;;;;;;;;;;;;;5.19;100.00;103171.16;4995258;28;19918;-72
2022/03/22 05:19:46;;;;;;;;;;;;;;;5.12;100.00;103163.13;4994244;28;19918;-72
2022/03/22 05:22:11;;;;;;;;;;;;;;;5.09;100.00;103163.97;4994304;28;19918;-71
2022/03/22 05:24:36;;;;;;;;;;;;;;;5.04;100.00;103167.41;4995542;28;19982;-71
2022/03/22 05:27:02;;;;;;;;;;;;;;;4.97;100.00;103174.28;4995619;28;19961;-71
2022/03/22 05:29:27;;;;;;;;;;;;;;;4.94;100.00;103176.88;4995495;28;19924;-72
2022/03/22 05:31:52;;;;;;;;;;;;;;;4.92;100.00;103178.59;4993994;28;19945;-71
2022/03/22 05:34:18;;;;;;;;;;;;;;;4.83;100.00;103178.44;4993741;28;19922;-70
2022/03/22 05:36:43;;;;;;;;;;;;;;;4.81;100.00;103189.81;4992442;28;19917;-71
2022/03/22 05:39:08;;;;;;;;;;;;;;;4.78;100.00;103189.72;4983031;28;20303;-70
2022/03/22 05:41:33;;;;;;;;;;;;;;;4.75;100.00;103198.47;4994930;28;20291;-70
2022/03/22 05:43:59;;;;;;;;;;;;;;;4.73;100.00;103205.44;4993879;28;20398;-71
2022/03/22 05:46:24;;;;;;;;;;;;;;;4.73;100.00;103208.97;4993482;28;19972;-70
2022/03/22 05:48:50;;;;;;;;;;;;;;;4.68;100.00;103199.19;4995138;28;20003;-71
2022/03/22 05:51:19;;;;;;;;;;;;;;;4.69;100.00;103198.38;4993656;28;19981;-72
2022/03/22 05:53:45;;;;;;;;;;;;;;;4.65;100.00;103200.03;4993595;28;20383;-70
2022/03/22 05:56:10;;;;;;;;;;;;;;;4.63;100.00;103206.16;4994742;28;19918;-71
2022/03/22 05:58:36;;;;;;;;;;;;;;;4.62;100.00;103209.63;4994772;28;19953;-73
2022/03/22 06:01:01;;;;;;;;;;;;;;;4.61;100.00;103214.00;4969162;28;19966;-70
2022/03/22 06:03:26;;;;;;;;;;;;;;;4.62;100.00;103221.03;4980105;28;19929;-73
2022/03/22 06:05:51;;;;;;;;;;;;;;;4.61;100.00;103219.28;4976710;28;19922;-71
2022/03/22 06:08:18;;;;;;;;;;;;;;;4.62;100.00;103220.13;4985979;28;19925;-71
2022/03/22 06:10:43;;;;;;;;;;;;;;;4.62;100.00;103222.78;4986177;28;19925;-72
2022/03/22 06:13:08;;;;;;;;;;;;;;;4.62;100.00;103226.31;4964200;28;19922;-71
2022/03/22 06:15:34;;;;;;;;;;;;;;;4.68;100.00;103231.69;4983505;28;19918;-71
2022/03/22 06:18:03;;;;;;;;;;;;;;;4.82;100.00;103239.88;4993297;28;19918;-71
2022/03/22 06:20:33;;;;;;;;;;;;;;;4.81;100.00;103243.34;4993734;28;19921;-72
2022/03/22 06:22:59;;;;;;;;;;;;;;;4.82;100.00;103249.50;4990636;28;19981;-70
2022/03/22 06:25:24;;;;;;;;;;;;;;;4.93;100.00;103251.47;4974948;28;19918;-70
2022/03/22 06:27:51;;;;;;;;;;;;;;;5.01;100.00;103264.78;4983244;28;19918;-70
2022/03/22 06:30:16;;;;;;;;;;;;;;;5.00;100.00;103268.25;4987464;28;19917;-70
2022/03/22 06:32:46;;;;;;;;;;;;;;;5.06;100.00;103269.25;4994087;28;20287;-70
2022/03/22 06:35:12;;;;;;;;;;;;;;;5.09;100.00;103276.34;4992932;28;19925;-70
2022/03/22 06:37:38;;;;;;;;;;;;;;;5.14;100.00;103270.28;4985781;28;19925;-70
2022/03/22 06:40:04;;;;;;;;;;;;;;;5.20;100.00;103266.91;4991175;28;19922;-70
2022/03/22 06:42:29;;;;;;;;;;;;;;;5.30;100.00;103266.16;4992687;28;20020;-70
2022/03/22 06:44:55;;;;;;;;;;;;;;;5.36;100.00;103272.44;4986030;28;19984;-70
2022/03/22 06:50:24;;;;;;;;;;;;;;;5.55;100.00;103282.44;4981759;28;19936;-70
2022/03/22 06:52:50;;;;;;;;;;;;;;;5.64;100.00;103282.56;4979284;28;20029;-70
2022/03/22 06:55:16;;;;;;;;;;;;;;;5.65;100.00;103281.72;4986298;28;20359;-70
2022/03/22 06:57:41;;;;;;;;;;;;;;;5.74;100.00;103291.53;4984010;28;20016;-70
2022/03/22 07:00:11;;;;;;;;;;;;;;;5.84;100.00;103288.22;4990423;28;20037;-70
2022/03/22 07:02:39;;;;;;;;;;;;;;;5.95;100.00;103290.16;4991033;28;19922;-78
2022/03/22 07:05:05;;;;;;;;;;;;;;;6.08;100.00;103296.50;4984397;28;19917;-69
2022/03/22 07:07:30;;;;;;;;;;;;;;;6.13;100.00;103295.69;4989483;28;19918;-71
2022/03/22 07:09:55;;;;;;;;;;;;;;;6.27;100.00;103300.28;4982083;28;19918;-70
2022/03/22 07:12:21;;;;;;;;;;;;;;;6.46;100.00;103297.03;4985190;28;19918;-70
2022/03/22 07:14:46;;;;;;;;;;;;;;;6.58;100.00;103286.63;4991991;28;19917;-70
2022/03/22 07:17:11;;;;;;;;;;;;;;;6.63;100.00;103279.66;4992037;28;20062;-70
2022/03/22 07:19:37;;;;;;;;;;;;;;;6.64;100.00;103287.59;4984985;28;19922;-70
2022/03/22 07:22:03;;;;;;;;;;;;;;;6.74;100.00;103271.00;4981229;28;20394;-70
2022/03/22 07:24:28;;;;;;;;;;;;;;;6.79;100.00;103268.41;4988420;28;20023;-70
2022/03/22 07:26:54;;;;;;;;;;;;;;;6.86;100.00;103259.66;4976283;28;20042;-70
2022/03/22 07:29:19;;;;;;;;;;;;;;;6.99;100.00;103248.38;4989788;28;19918;-70
2022/03/22 07:31:45;;;;;;;;;;;;;;;7.07;100.00;103252.88;4976716;28;19925;-70
2022/03/22 07:34:15;;;;;;;;;;;;;;;7.14;100.00;103237.94;4985293;28;19925;-70
2022/03/22 07:36:40;;;;;;;;;;;;;;;7.28;100.00;103236.31;4981738;28;20463;-70
2022/03/22 07:39:11;;;;;;;;;;;;;;;7.41;100.00;103222.31;4985687;28;19953;-70
2022/03/22 07:41:38;;;;;;;;;;;;;;;7.54;100.00;103230.38;4979030;28;19918;-70
2022/03/22 07:44:06;;;;;;;;;;;;;;;7.84;100.00;103224.41;4982692;28;20376;-70
2022/03/22 07:46:33;;;;;;;;;;;;;;;7.90;100.00;103219.16;4977485;28;19993;-70
2022/03/22 07:52:57;;;;;;;;;;;;;;;7.90;100.00;103213.84;4987390;28;19917;-70
2022/03/22 07:54:27;;;;;;;;;;;;;;;8.12;100.00;103212.19;4988998;28;19924;-70
2022/03/22 07:56:52;;;;;;;;;;;;;;;8.32;100.00;103218.53;4990312;28;19925;-70
2022/03/22 07:59:17;;;;;;;;;;;;;;;8.38;100.00;103210.59;4979893;28;19933;-70
2022/03/22 08:01:43;;;;;;;;;;;;;;;8.51;100.00;103212.44;4990546;28;19925;-70
2022/03/22 08:04:08;;;;;;;;;;;;;;;8.65;100.00;103206.28;4987645;28;19922;-70
2022/03/22 08:06:33;;;;;;;;;;;;;;;8.62;100.00;103208.91;4987741;28;19918;-70
2022/03/22 08:08:58;;;;;;;;;;;;;;;8.76;100.00;103207.19;4988113;28;20335;-70
2022/03/22 08:11:24;;;;;;;;;;;;;;;8.90;100.00;103205.44;4992176;28;19918;-70
2022/03/22 08:13:49;;;;;;;;;;;;;;;9.04;100.00;103205.47;4984890;28;19918;-70
2022/03/22 08:16:14;;;;;;;;;;;;;;;9.14;100.00;103216.09;4986408;28;19918;-69
2022/03/22 08:18:39;;;;;;;;;;;;;;;9.31;100.00;103214.31;4983738;28;19925;-70
2022/03/22 08:21:05;;;;;;;;;;;;;;;9.44;100.00;103207.25;4991925;28;19922;-70
2022/03/22 08:23:30;;;;;;;;;;;;;;;9.66;100.00;103216.09;4991718;28;19922;-71
2022/03/22 08:25:55;;;;;;;;;;;;;;;9.86;100.00;103215.19;4988368;28;19925;-71
2022/03/22 08:28:21;;;;;;;;;;;;;;;9.93;100.00;103208.06;4984099;28;19922;-69
2022/03/22 08:30:46;;;;;;;;;;;;;;;10.04;100.00;103207.16;4987355;28;19919;-71
2022/03/22 08:33:12;;;;;;;;;;;;;;;10.16;100.00;103215.13;4999643;28;19956;-70
2022/03/22 08:35:40;;;;;;;;;;;;;;;10.28;100.00;103211.53;4985261;28;19988;-70
2022/03/22 08:38:05;;;;;;;;;;;;;;;10.49;100.00;103214.09;4982678;28;19918;-70
2022/03/22 08:40:30;;;;;;;;;;;;;;;10.47;100.00;103215.88;4988204;28;19918;-70
2022/03/22 08:42:56;;;;;;;;;;;;;;;10.57;100.00;103218.47;4997549;28;19917;-70
2022/03/22 08:45:23;;;;;;;;;;;;;;;10.82;100.00;103209.47;4994342;28;19975;-71
2022/03/22 08:47:49;;;;;;;;;;;;;;;11.21;100.00;103210.97;4991422;28;19922;-69
2022/03/22 08:50:16;;;;;;;;;;;;;;;11.28;100.00;103215.38;4991253;28;20080;-70
2022/03/22 08:52:41;;;;;;;;;;;;;;;11.31;100.00;103210.03;4994787;28;19924;-70
2022/03/22 08:55:08;;;;;;;;;;;;;;;11.60;100.00;103213.28;4988656;28;19922;-69
2022/03/22 08:57:36;;;;;;;;;;;;;;;11.71;100.00;103208.78;4994739;28;20350;-70
2022/03/22 09:00:08;;;;;;;;;;;;;;;11.77;100.00;103211.38;4978477;28;19925;-70
2022/03/22 09:02:34;;;;;;;;;;;;;;;11.99;100.00;103207.59;4976145;28;20302;-70
2022/03/22 09:07:43;;;;;;;;;;;;;;;12.54;100.00;103197.16;4984954;28;19924;-69
2022/03/22 09:10:09;;;;;;;;;;;;;;;12.93;100.00;103211.72;4995472;28;19921;-70
2022/03/22 09:12:35;;;;;;;;;;;;;;;13.46;100.00;103214.44;4995617;28;19965;-69
2022/03/22 09:15:01;;;;;;;;;;;;;;;13.74;100.00;103205.91;4995995;28;19925;-69
2022/03/22 09:17:26;;;;;;;;;;;;;;;13.73;100.00;103206.84;4995758;28;20001;-69
2022/03/22 09:19:52;;;;;;;;;;;;;;;14.19;100.00;103198.81;4995506;28;19945;-70
2022/03/22 09:22:17;;;;;;;;;;;;;;;14.58;100.00;103189.97;4995162;28;19943;-69
2022/03/22 09:24:42;;;;;;;;;;;;;;;15.18;100.00;103193.91;4990831;28;19926;-70
2022/03/22 09:27:07;;;;;;;;;;;;;;;15.53;100.00;103189.50;4981751;28;19922;-71
2022/03/22 09:29:33;;;;;;;;;;;;;;;15.90;100.00;103198.31;4982441;28;19918;-70
2022/03/22 09:31:58;;;;;;;;;;;;;;;15.79;100.00;103195.06;4977475;28;19969;-71
2022/03/22 09:34:25;;;;;;;;;;;;;;;16.22;100.00;103187.56;4991934;28;20057;-71
2022/03/22 09:36:50;;;;;;;;;;;;;;;16.25;100.00;103190.16;4986430;28;19919;-70
2022/03/22 09:39:15;;;;;;;;;;;;;;;16.63;100.00;103190.81;4993391;28;19929;-71
2022/03/22 09:41:42;;;;;;;;;;;;;;;16.94;100.00;103192.53;4991449;28;20442;-71
2022/03/22 09:44:09;;;;;;;;;;;;;;;17.36;100.00;103191.13;4985121;28;19924;-70
2022/03/22 09:46:34;;;;;;;;;;;;;;;17.58;100.00;103198.44;4993638;28;20708;-70
2022/03/22 09:48:59;;;;;;;;;;;;;;;17.75;100.00;103196.06;4990729;28;20082;-71
2022/03/22 09:54:09;;;;;;;;;;;;;;;18.50;100.00;103188.81;4975535;28;19929;-70
2022/03/22 09:56:34;;;;;;;;;;;;;;;18.20;100.00;103191.69;4975761;28;19918;-70
2022/03/22 09:59:00;;;;;;;;;;;;;;;18.79;100.00;103188.53;4974056;28;19925;-70
2022/03/22 10:01:26;;;;;;;;;;;;;;;19.26;100.00;103182.09;4975279;28;20343;-70
2022/03/22 10:03:55;;;;;;;;;;;;;;;19.12;100.00;103185.38;4975104;28;19919;-71
2022/03/22 10:06:22;;;;;;;;;;;;;;;18.95;100.00;103189.69;4976037;28;19918;-73
2022/03/22 10:08:50;;;;;;;;;;;;;;;19.95;100.00;103184.47;4973820;28;19946;-72
2022/03/22 10:11:16;;;;;;;;;;;;;;;20.02;100.00;103183.25;4973789;28;20298;-73
2022/03/22 10:13:54;;;;;;;;;;;;;;;19.99;100.00;103185.22;4974732;28;19918;-73
2022/03/22 10:16:19;;;;;;;;;;;;;;;20.37;100.00;103190.66;4979397;28;20363;-73
2022/03/22 10:18:44;;;;;;;;;;;;;;;20.50;100.00;103188.28;4994236;28;20041;-76
2022/03/22 10:21:10;;;;;;;;;;;;;;;20.98;100.00;103189.53;4988085;28;19925;-74
2022/03/22 10:23:47;;;;;;;;;;;;;;;20.68;100.00;103188.28;4986921;28;19969;-74
2022/03/22 10:26:12;;;;;;;;;;;;;;;21.10;100.00;103186.22;4985208;28;19968;-73
2022/03/22 10:28:47;;;;;;;;;;;;;;;21.50;100.00;103187.78;4977481;28;19922;-74
2022/03/22 10:31:13;;;;;;;;;;;;;;;21.60;100.00;103188.19;4989330;28;19922;-72
2022/03/22 10:33:47;;;;;;;;;;;;;;;21.57;100.00;103196.47;4995948;28;20020;-72
2022/03/22 10:36:14;;;;;;;;;;;;;;;21.24;100.00;103191.81;4993620;28;20401;-73
2022/03/22 10:38:39;;;;;;;;;;;;;;;20.93;100.00;103191.53;4995062;28;19922;-72
2022/03/22 10:41:05;;;;;;;;;;;;;;;20.91;100.00;103196.13;4994242;28;19917;-72
2022/03/22 10:43:32;;;;;;;;;;;;;;;21.24;100.00;103194.50;4993280;28;19940;-72
2022/03/22 10:46:01;;;;;;;;;;;;;;;21.77;100.00;103194.50;4990110;28;20372;-73
2022/03/22 10:48:27;;;;;;;;;;;;;;;21.78;100.00;103188.13;4979759;28;19949;-71
2022/03/22 10:50:53;;;;;;;;;;;;;;;23.32;100.00;103191.19;4973235;28;20475;-70
2022/03/22 10:53:20;;;;;;;;;;;;;;;23.64;100.00;103198.31;4991724;28;19918;-71
2022/03/22 10:55:45;;;;;;;;;;;;;;;23.84;100.00;103197.09;4994116;28;19925;-71
2022/03/22 10:58:14;;;;;;;;;;;;;;;23.57;100.00;103190.63;4992919;28;19918;-73
2022/03/22 11:00:44;;;;;;;;;;;;;;;24.17;100.00;103193.19;4992831;28;20378;-71
2022/03/22 11:03:10;;;;;;;;;;;;;;;24.33;100.00;103194.97;4992737;28;20025;-72
2022/03/22 11:05:36;;;;;;;;;;;;;;;25.02;100.00;103195.88;4993496;28;19917;-71
2022/03/22 11:08:01;;;;;;;;;;;;;;;25.11;100.00;103197.97;4995225;28;19918;-71
2022/03/22 11:10:29;;;;;;;;;;;;;;;25.81;100.00;103203.13;4997525;28;20414;-71
2022/03/22 11:12:55;;;;;;;;;;;;;;;26.15;100.00;103199.81;4991195;28;19968;-72
2022/03/22 11:15:21;;;;;;;;;;;;;;;26.72;100.00;103184.75;4985487;28;19990;-71
2022/03/22 11:17:48;;;;;;;;;;;;;;;27.26;100.00;103197.97;4996846;28;19921;-71
2022/03/22 11:20:14;;;;;;;;;;;;;;;27.26;100.00;103203.41;4997454;28;19918;-72
2022/03/22 11:22:49;;;;;;;;;;;;;;;28.36;100.00;103195.59;4996184;28;19918;-72
2022/03/22 11:25:18;;;;;;;;;;;;;;;27.55;100.00;103192.03;4996391;28;20053;-71
2022/03/22 11:27:54;;;;;;;;;;;;;;;28.29;100.00;103189.75;4998781;28;19918;-71
2022/03/22 11:30:19;;;;;;;;;;;;;;;28.65;100.00;103185.91;4980856;28;19922;-72
2022/03/22 11:35:28;;;;;;;;;;;;;;;28.60;100.00;103182.72;4982735;28;20422;-71
2022/03/22 11:38:00;;;;;;;;;;;;;;;29.59;100.00;103192.53;4984295;28;19918;-69
2022/03/22 11:43:11;;;;;;;;;;;;;;;29.54;100.00;103187.47;4993649;28;19925;-70
2022/03/22 11:45:49;;;;;;;;;;;;;;;30.22;100.00;103197.06;4985981;28;20397;-68
2022/03/22 11:48:16;;;;;;;;;;;;;;;29.46;100.00;103195.47;4990716;28;20393;-70
2022/03/22 11:50:42;;;;;;;;;;;;;;;30.69;92.25;103186.31;4982070;28;19922;-69
2022/03/22 11:53:15;;;;;;;;;;;;;;;30.20;83.42;103190.81;4978800;28;19921;-71
2022/03/22 11:55:40;;;;;;;;;;;;;;;31.15;82.46;103188.47;4983587;28;20016;-71
2022/03/22 11:58:08;;;;;;;;;;;;;;;31.74;82.63;103183.72;4987251;28;20016;-71
2022/03/22 12:00:43;;;;;;;;;;;;;;;31.53;79.71;103188.53;4982698;28;19921;-71
2022/03/22 12:03:09;;;;;;;;;;;;;;;31.56;84.10;103180.00;4989236;28;19925;-70
2022/03/22 12:05:34;;;;;;;;;;;;;;;30.84;80.94;103181.34;4999220;28;19918;-70
2022/03/22 12:08:05;;;;;;;;;;;;;;;32.66;75.65;103182.91;4986154;28;19971;-70
2022/03/22 12:10:31;;;;;;;;;;;;;;;30.14;72.42;103181.28;5000487;28;19918;-72
2022/03/22 12:12:56;;;;;;;;;;;;;;;31.19;86.48;103173.44;4988294;28;20284;-71
2022/03/22 12:15:23;;;;;;;;;;;;;;;31.70;74.60;103179.56;4977077;28;19969;-70
2022/03/22 12:17:48;;;;;;;;;;;;;;;30.91;75.55;103179.75;4975579;28;20013;-70
2022/03/22 12:20:18;;;;;;;;;;;;;;;31.57;76.71;103173.47;4986971;28;20020;-70
2022/03/22 12:22:46;;;;;;;;;;;;;;;31.99;77.13;103163.88;4984006;28;19922;-71
2022/03/22 12:25:21;;;;;;;;;;;;;;;32.07;80.50;103177.75;4994068;28;19921;-73
2022/03/22 12:27:51;;;;;;;;;;;;;;;32.49;64.01;103170.81;4995186;28;20335;-71
2022/03/22 12:30:16;;;;;;;;;;;;;;;33.34;67.22;103167.72;4996321;28;20387;-71
2022/03/22 12:32:42;;;;;;;;;;;;;;;32.88;67.97;103166.03;4993552;28;19972;-71
2022/03/22 12:35:08;;;;;;;;;;;;;;;32.31;63.94;103169.88;4985473;28;19918;-69
2022/03/22 12:37:33;;;;;;;;;;;;;;;32.13;59.60;103165.31;4986609;28;19918;-71
2022/03/22 12:39:59;;;;;;;;;;;;;;;30.83;80.11;103161.25;4987797;28;20113;-72
2022/03/22 12:42:24;;;;;;;;;;;;;;;32.42;77.55;103147.69;4993772;28;19925;-70
2022/03/22 12:44:49;;;;;;;;;;;;;;;32.36;57.20;103158.41;4987790;28;19962;-70
2022/03/22 12:47:16;;;;;;;;;;;;;;;32.67;54.10;103158.00;4991379;28;19922;-71
2022/03/22 12:49:42;;;;;;;;;;;;;;;32.48;70.31;103148.97;4994439;28;19926;-71
2022/03/22 12:52:08;;;;;;;;;;;;;;;33.75;65.57;103148.66;4995104;28;19922;-72
2022/03/22 12:54:41;;;;;;;;;;;;;;;33.53;68.09;103151.03;4986356;28;19918;-72
2022/03/22 12:57:08;;;;;;;;;;;;;;;33.23;67.57;103145.91;4985060;28;19918;-72
2022/03/22 12:59:34;;;;;;;;;;;;;;;34.03;58.65;103141.97;4985748;28;20380;-71
2022/03/22 13:02:00;;;;;;;;;;;;;;;33.09;74.33;103136.31;4982814;28;19981;-72
2022/03/22 13:04:29;;;;;;;;;;;;;;;33.64;68.63;103139.75;4986925;28;19917;-71
2022/03/22 13:06:59;;;;;;;;;;;;;;;34.17;69.51;103134.97;4988748;28;19924;-71
2022/03/22 13:12:10;;;;;;;;;;;;;;;34.37;61.58;103128.16;4979418;28;19928;-72